BAW2273 EGKK-KJFK
Flight info
| Callsign | BAW2273 |
|---|---|
| Flight time | N/A |
| Altitude | 36000 |
| Route | IMVUR N63 SAM N19 ADKIK DCT PEWBI DCT MOPAT DCT TOBOR/M083F370 DCT 53N020W 53N030W 5230N04000W 50N050W DCT ELSIR/N0463F380 N402C ALLEX DCT ENE PARCH4 |
| Aircraft | B77W/H-SDE1E2E3FGHIJ2J3J4J5M1RWXY/LB1D1 |
Departure
| Time | 2026-05-06 20:53 |
|---|---|
| Airport | London Gatwick Airport (EGKK) |
Arrival
| Time | N/A |
|---|---|
| Airport | John F. Kennedy International Airport (KJFK) |
| Time | Latitude | Longitude | Altitude | Speed | Heading |
|---|---|---|---|---|---|
| 2026-05-06 20:15 | 51.15587 | -0.16903 | 208 ft | 0 kts | 167° |
| 2026-05-06 20:29 | 51.15607 | -0.16910 | 213 ft | 4 kts | 167° |
| 2026-05-06 20:29 | 51.15629 | -0.16918 | 216 ft | 3 kts | 168° |
| 2026-05-06 20:30 | 51.15652 | -0.16918 | 221 ft | 4 kts | 217° |
| 2026-05-06 20:30 | 51.15669 | -0.16847 | 216 ft | 3 kts | 258° |
| 2026-05-06 20:30 | 51.15670 | -0.16841 | 214 ft | 2 kts | 258° |
| 2026-05-06 20:34 | 51.15669 | -0.16853 | 218 ft | 5 kts | 258° |
| 2026-05-06 20:34 | 51.15659 | -0.16920 | 220 ft | 6 kts | 258° |
| 2026-05-06 20:34 | 51.15650 | -0.16989 | 217 ft | 6 kts | 258° |
| 2026-05-06 20:35 | 51.15640 | -0.17062 | 208 ft | 7 kts | 258° |
| 2026-05-06 20:35 | 51.15629 | -0.17142 | 218 ft | 7 kts | 258° |
| 2026-05-06 20:35 | 51.15618 | -0.17221 | 218 ft | 5 kts | 255° |
| 2026-05-06 20:35 | 51.15615 | -0.17240 | 217 ft | 0 kts | 255° |
| 2026-05-06 20:36 | 51.15615 | -0.17242 | 217 ft | 0 kts | 255° |
| 2026-05-06 20:36 | 51.15614 | -0.17246 | 215 ft | 0 kts | 255° |
| 2026-05-06 20:36 | 51.15611 | -0.17263 | 214 ft | 2 kts | 255° |
| 2026-05-06 20:36 | 51.15608 | -0.17285 | 215 ft | 2 kts | 255° |
| 2026-05-06 20:37 | 51.15604 | -0.17309 | 218 ft | 2 kts | 255° |
| 2026-05-06 20:37 | 51.15600 | -0.17334 | 215 ft | 2 kts | 255° |
| 2026-05-06 20:37 | 51.15595 | -0.17361 | 215 ft | 3 kts | 255° |
| 2026-05-06 20:37 | 51.15561 | -0.17428 | 219 ft | 12 kts | 205° |
| 2026-05-06 20:38 | 51.15505 | -0.17424 | 217 ft | 4 kts | 167° |
| 2026-05-06 20:40 | 51.15501 | -0.17423 | 213 ft | 4 kts | 167° |
| 2026-05-06 20:40 | 51.15446 | -0.17402 | 217 ft | 9 kts | 167° |
| 2026-05-06 20:40 | 51.15384 | -0.17379 | 219 ft | 9 kts | 167° |
| 2026-05-06 20:40 | 51.15324 | -0.17382 | 220 ft | 9 kts | 212° |
| 2026-05-06 20:41 | 51.15297 | -0.17473 | 215 ft | 9 kts | 256° |
| 2026-05-06 20:41 | 51.15283 | -0.17574 | 212 ft | 9 kts | 257° |
| 2026-05-06 20:41 | 51.15269 | -0.17674 | 216 ft | 9 kts | 257° |
| 2026-05-06 20:41 | 51.15255 | -0.17775 | 213 ft | 9 kts | 258° |
| 2026-05-06 20:42 | 51.15242 | -0.17875 | 218 ft | 9 kts | 258° |
| 2026-05-06 20:42 | 51.15228 | -0.17977 | 219 ft | 10 kts | 257° |
| 2026-05-06 20:42 | 51.15211 | -0.18098 | 212 ft | 13 kts | 257° |
| 2026-05-06 20:42 | 51.15191 | -0.18245 | 216 ft | 14 kts | 259° |
| 2026-05-06 20:43 | 51.15176 | -0.18393 | 216 ft | 14 kts | 261° |
| 2026-05-06 20:43 | 51.15157 | -0.18540 | 214 ft | 14 kts | 258° |
| 2026-05-06 20:43 | 51.15136 | -0.18695 | 211 ft | 15 kts | 257° |
| 2026-05-06 20:43 | 51.15113 | -0.18857 | 218 ft | 15 kts | 257° |
| 2026-05-06 20:44 | 51.15090 | -0.19019 | 218 ft | 15 kts | 257° |
| 2026-05-06 20:44 | 51.15067 | -0.19181 | 214 ft | 15 kts | 257° |
| 2026-05-06 20:44 | 51.15045 | -0.19344 | 215 ft | 15 kts | 258° |
| 2026-05-06 20:44 | 51.15023 | -0.19506 | 216 ft | 15 kts | 258° |
| 2026-05-06 20:45 | 51.15001 | -0.19669 | 217 ft | 15 kts | 257° |
| 2026-05-06 20:45 | 51.14978 | -0.19831 | 216 ft | 15 kts | 257° |
| 2026-05-06 20:45 | 51.14955 | -0.19992 | 219 ft | 15 kts | 257° |
| 2026-05-06 20:45 | 51.14933 | -0.20155 | 214 ft | 15 kts | 258° |
| 2026-05-06 20:46 | 51.14926 | -0.20208 | 214 ft | 15 kts | 258° |
| 2026-05-06 20:46 | 51.14868 | -0.20615 | 215 ft | 9 kts | 256° |
| 2026-05-06 20:46 | 51.14855 | -0.20716 | 218 ft | 9 kts | 258° |
| 2026-05-06 20:47 | 51.14842 | -0.20818 | 211 ft | 9 kts | 258° |
| 2026-05-06 20:47 | 51.14829 | -0.20918 | 217 ft | 9 kts | 258° |
| 2026-05-06 20:47 | 51.14815 | -0.21018 | 215 ft | 9 kts | 258° |
| 2026-05-06 20:47 | 51.14799 | -0.21118 | 217 ft | 9 kts | 253° |
| 2026-05-06 20:48 | 51.14780 | -0.21217 | 212 ft | 9 kts | 255° |
| 2026-05-06 20:48 | 51.14761 | -0.21315 | 217 ft | 9 kts | 246° |
| 2026-05-06 20:48 | 51.14709 | -0.21367 | 217 ft | 10 kts | 178° |
| 2026-05-06 20:48 | 51.14650 | -0.21340 | 219 ft | 0 kts | 165° |
| 2026-05-06 20:51 | 51.14621 | -0.21327 | 214 ft | 11 kts | 165° |
| 2026-05-06 20:52 | 51.14543 | -0.21273 | 217 ft | 13 kts | 138° |
| 2026-05-06 20:52 | 51.14519 | -0.21174 | 212 ft | 7 kts | 78° |
| 2026-05-06 20:52 | 51.14521 | -0.21159 | 212 ft | 8 kts | 77° |
| 2026-05-06 20:52 | 51.14564 | -0.20847 | 213 ft | 60 kts | 78° |
| 2026-05-06 20:53 | 51.14707 | -0.19798 | 210 ft | 131 kts | 78° |
| 2026-05-06 20:53 | 51.14943 | -0.18080 | 302 ft | 176 kts | 78° |
| 2026-05-06 20:53 | 51.15197 | -0.16158 | 979 ft | 177 kts | 78° |
| 2026-05-06 20:53 | 51.15428 | -0.14206 | 1695 ft | 183 kts | 76° |
| 2026-05-06 20:54 | 51.15723 | -0.12094 | 1951 ft | 208 kts | 74° |
| 2026-05-06 20:54 | 51.16067 | -0.09799 | 2510 ft | 218 kts | 75° |
| 2026-05-06 20:54 | 51.16507 | -0.07460 | 2979 ft | 223 kts | 60° |
| 2026-05-06 20:54 | 51.17563 | -0.05702 | 2994 ft | 224 kts | 25° |
| 2026-05-06 20:55 | 51.19074 | -0.05196 | 3013 ft | 230 kts | 355° |
| 2026-05-06 20:55 | 51.20702 | -0.05802 | 3016 ft | 249 kts | 339° |
| 2026-05-06 20:55 | 51.22145 | -0.07333 | 2994 ft | 254 kts | 310° |
| 2026-05-06 20:55 | 51.22749 | -0.09941 | 3399 ft | 258 kts | 270° |
| 2026-05-06 20:56 | 51.22446 | -0.12772 | 4132 ft | 260 kts | 258° |
| 2026-05-06 20:56 | 51.22083 | -0.15624 | 4916 ft | 263 kts | 261° |
| 2026-05-06 20:56 | 51.21764 | -0.18497 | 5828 ft | 263 kts | 261° |
| 2026-05-06 20:56 | 51.21439 | -0.21386 | 6624 ft | 267 kts | 261° |
| 2026-05-06 20:57 | 51.21102 | -0.24320 | 7369 ft | 271 kts | 261° |
| 2026-05-06 20:57 | 51.20759 | -0.27290 | 8160 ft | 274 kts | 261° |
| 2026-05-06 20:57 | 51.20410 | -0.30294 | 8921 ft | 277 kts | 261° |
| 2026-05-06 20:57 | 51.20060 | -0.33291 | 9706 ft | 280 kts | 261° |
| 2026-05-06 20:58 | 51.19681 | -0.36410 | 10392 ft | 287 kts | 259° |
| 2026-05-06 20:58 | 51.19410 | -0.38516 | 10579 ft | 302 kts | 259° |
| 2026-05-06 20:58 | 51.18809 | -0.43145 | 10841 ft | 336 kts | 259° |
| 2026-05-06 20:58 | 51.18513 | -0.45422 | 10972 ft | 350 kts | 259° |
| 2026-05-06 20:59 | 51.17993 | -0.49420 | 11609 ft | 362 kts | 259° |
| 2026-05-06 20:59 | 51.17468 | -0.53381 | 12433 ft | 366 kts | 257° |
| 2026-05-06 20:59 | 51.16675 | -0.57288 | 13231 ft | 376 kts | 249° |
| 2026-05-06 20:59 | 51.15261 | -0.62370 | 14460 ft | 381 kts | 246° |
| 2026-05-06 21:00 | 51.14144 | -0.66211 | 15394 ft | 384 kts | 246° |
| 2026-05-06 21:00 | 51.13037 | -0.70104 | 16282 ft | 388 kts | 247° |
| 2026-05-06 21:00 | 51.12297 | -0.72764 | 16864 ft | 391 kts | 247° |
| 2026-05-06 21:00 | 51.11203 | -0.76758 | 17729 ft | 396 kts | 247° |
| 2026-05-06 21:01 | 51.10120 | -0.80759 | 18529 ft | 400 kts | 248° |
| 2026-05-06 21:01 | 51.09029 | -0.84810 | 19289 ft | 404 kts | 248° |
| 2026-05-06 21:01 | 51.07930 | -0.88891 | 20051 ft | 408 kts | 248° |
| 2026-05-06 21:01 | 51.06792 | -0.93103 | 20823 ft | 411 kts | 247° |
| 2026-05-06 21:02 | 51.05655 | -0.97301 | 21548 ft | 416 kts | 247° |
| 2026-05-06 21:02 | 51.04520 | -1.01486 | 22231 ft | 420 kts | 247° |
| 2026-05-06 21:02 | 51.03339 | -1.05827 | 22944 ft | 425 kts | 247° |
| 2026-05-06 21:02 | 51.02162 | -1.10151 | 23642 ft | 428 kts | 247° |
| 2026-05-06 21:03 | 51.00989 | -1.14457 | 24217 ft | 432 kts | 247° |
| 2026-05-06 21:03 | 50.99793 | -1.18840 | 24822 ft | 435 kts | 247° |
| 2026-05-06 21:03 | 50.98586 | -1.23255 | 25422 ft | 437 kts | 247° |
| 2026-05-06 21:03 | 50.97368 | -1.27699 | 25958 ft | 441 kts | 247° |
| 2026-05-06 21:04 | 50.96163 | -1.32164 | 26010 ft | 441 kts | 249° |
| 2026-05-06 21:04 | 50.95182 | -1.36768 | 26027 ft | 440 kts | 255° |
| 2026-05-06 21:04 | 50.94544 | -1.41501 | 26028 ft | 441 kts | 260° |
| 2026-05-06 21:04 | 50.93999 | -1.46319 | 26283 ft | 445 kts | 259° |
| 2026-05-06 21:05 | 50.93398 | -1.51143 | 26861 ft | 447 kts | 259° |
| 2026-05-06 21:05 | 50.92776 | -1.55969 | 27466 ft | 448 kts | 258° |
| 2026-05-06 21:05 | 50.92146 | -1.60812 | 27996 ft | 451 kts | 258° |
| 2026-05-06 21:05 | 50.91509 | -1.65700 | 28484 ft | 454 kts | 258° |
| 2026-05-06 21:06 | 50.90870 | -1.70613 | 28944 ft | 457 kts | 258° |
| 2026-05-06 21:06 | 50.90226 | -1.75563 | 29417 ft | 460 kts | 258° |
| 2026-05-06 21:06 | 50.89578 | -1.80533 | 29852 ft | 463 kts | 258° |
| 2026-05-06 21:06 | 50.88924 | -1.85535 | 30300 ft | 463 kts | 258° |
| 2026-05-06 21:07 | 50.88271 | -1.90522 | 30782 ft | 462 kts | 258° |
| 2026-05-06 21:07 | 50.87617 | -1.95492 | 31293 ft | 460 kts | 258° |
| 2026-05-06 21:07 | 50.86963 | -2.00433 | 31766 ft | 459 kts | 258° |
| 2026-05-06 21:07 | 50.86313 | -2.05348 | 32195 ft | 459 kts | 258° |
| 2026-05-06 21:08 | 50.85659 | -2.10285 | 32621 ft | 458 kts | 258° |
| 2026-05-06 21:08 | 50.85012 | -2.15166 | 33096 ft | 457 kts | 258° |
| 2026-05-06 21:08 | 50.84357 | -2.20086 | 33546 ft | 456 kts | 258° |
| 2026-05-06 21:08 | 50.83702 | -2.24987 | 33951 ft | 456 kts | 258° |
| 2026-05-06 21:09 | 50.83045 | -2.29889 | 34288 ft | 456 kts | 258° |
| 2026-05-06 21:09 | 50.82384 | -2.34807 | 34572 ft | 457 kts | 258° |
| 2026-05-06 21:09 | 50.81724 | -2.39711 | 34830 ft | 458 kts | 258° |
| 2026-05-06 21:09 | 50.81055 | -2.44647 | 35126 ft | 458 kts | 258° |
| 2026-05-06 21:10 | 50.80465 | -2.49590 | 35347 ft | 458 kts | 264° |
| 2026-05-06 21:10 | 50.80391 | -2.54621 | 35551 ft | 459 kts | 275° |
| 2026-05-06 21:10 | 50.80837 | -2.59625 | 35835 ft | 459 kts | 282° |
| 2026-05-06 21:10 | 50.81730 | -2.64474 | 35964 ft | 462 kts | 290° |
| 2026-05-06 21:11 | 50.82848 | -2.69256 | 36019 ft | 465 kts | 290° |
| 2026-05-06 21:11 | 50.85016 | -2.78861 | 36007 ft | 460 kts | 289° |
| 2026-05-06 21:12 | 50.87090 | -2.88311 | 36005 ft | 456 kts | 289° |
| 2026-05-06 21:12 | 50.89149 | -2.97802 | 35997 ft | 456 kts | 289° |
| 2026-05-06 21:13 | 50.91201 | -3.07307 | 36016 ft | 456 kts | 289° |
| 2026-05-06 21:13 | 50.93246 | -3.16815 | 36009 ft | 457 kts | 289° |
| 2026-05-06 21:14 | 50.95291 | -3.26367 | 36015 ft | 458 kts | 288° |
| 2026-05-06 21:14 | 50.97330 | -3.35938 | 36003 ft | 459 kts | 288° |
| 2026-05-06 21:15 | 50.99368 | -3.45542 | 36011 ft | 459 kts | 288° |